Flight Track Log - Related Links

Times and Time Zones

All times are in EDT time to prevent confusion due to time zone crossing. See the N4295R flight status page for this flight to view local times or setup timezone preferences in your user account.

Time Position Orientation Groundspeed Altitude Reporting Facility
EDT Latitude Longitude Course Direction KTS MPH feet Rate Location/Type
Sun 12:38:04 PM 41.5233 -81.6758 56° Northeast 96 110 1,100  Level Cleveland Center
Sun 12:38:41 PM 41.5317 -81.6594 56° Northeast 91 105 1,500 612 Climbing Cleveland Center
Sun 12:39:42 PM 41.5361 -81.6233 81° East 106 122 2,100 694 Climbing Cleveland Center
Sun 12:40:42 PM 41.5344 -81.5844 93° East 104 120 2,900 446 Climbing Cleveland Center
Sun 12:41:43 PM 41.5347 -81.5428 89° East 109 125 3,000 344 Climbing Cleveland Center
Sun 12:42:44 PM 41.5311 -81.5014 97° East 111 128 3,600 639 Climbing Cleveland Center
Sun 12:43:45 PM 41.5272 -81.4622 98° East 100 115 4,300 639 Climbing Cleveland Center
Sun 12:44:46 PM 41.5275 -81.4264 89° East 102 117 4,900 574 Climbing Cleveland Center
Sun 12:45:40 PM 41.5256 -81.3931 94° East 107 123 5,400 574 Climbing Cleveland Center
Sun 12:46:41 PM 41.5239 -81.3514 93° East 96 110 6,000 590 Climbing Cleveland Center
Sun 12:47:42 PM 41.5239 -81.3181 90° East 94 108 6,600 541 Climbing Cleveland Center
Sun 12:48:43 PM 41.5200 -81.2847 99° East 90 104 7,100 14 Climbing Cleveland Center
Sun 12:50:00 PM 41.5186 -81.2290 92° East  Level FlightAware Approximate
Sun 12:57:00 PM 41.4287 -80.9583 119° Southeast  Level FlightAware Approximate
Sun 12:58:00 PM 41.4129 -80.9203 119° Southeast  Level FlightAware Approximate
Sun 12:59:00 PM 41.3971 -80.8824 119° Southeast  Level FlightAware Approximate
Sun 01:00:00 PM 41.3814 -80.8445 119° Southeast  Level FlightAware Approximate
Sun 01:01:00 PM 41.3656 -80.8066 119° Southeast  Level FlightAware Approximate
Sun 01:02:00 PM 41.3498 -80.7687 119° Southeast  Level FlightAware Approximate
Sun 01:03:00 PM 41.3340 -80.7309 119° Southeast  Level FlightAware Approximate
Sun 01:04:00 PM 41.3181 -80.6930 119° Southeast  Level FlightAware Approximate
Sun 01:05:00 PM 41.3023 -80.6552 119° Southeast  Level FlightAware Approximate
Sun 01:06:00 PM 41.2864 -80.6174 119° Southeast  Level FlightAware Approximate
Sun 01:07:00 PM 41.2706 -80.5796 119° Southeast  Level FlightAware Approximate
Sun 01:08:00 PM 41.2547 -80.5418 119° Southeast  Level FlightAware Approximate
Sun 01:09:00 PM 41.2388 -80.5041 119° Southeast  Level FlightAware Approximate
Sun 01:10:00 PM 41.2229 -80.4663 119° Southeast  Level FlightAware Approximate
Sun 01:11:00 PM 41.2070 -80.4286 119° Southeast  Level FlightAware Approximate
Sun 01:12:00 PM 41.1911 -80.3909 119° Southeast  Level FlightAware Approximate
Sun 01:13:00 PM 41.1751 -80.3533 119° Southeast  Level FlightAware Approximate
Sun 01:14:00 PM 41.1594 -80.3154 118° Southeast  Level FlightAware Approximate
Sun 01:15:00 PM 41.1440 -80.2774 118° Southeast  Level FlightAware Approximate
Sun 01:16:00 PM 41.1286 -80.2393 118° Southeast  Level FlightAware Approximate
Sun 01:16:12 PM 41.1361 -80.2358 118° Southeast 117 135 7,000  Level Cleveland Center
Sun 01:17:00 PM 41.1132 -80.2013 118° Southeast  Level FlightAware Approximate
Sun 01:17:12 PM 41.1150 -80.1972 126° Southeast 117 135 7,000  Level Cleveland Center
Sun 01:18:00 PM 41.0977 -80.1633 118° Southeast  Level FlightAware Approximate
Sun 01:18:12 PM 41.1003 -80.1642 121° Southeast 117 135 7,000  Level Cleveland Center
Sun 01:19:00 PM 41.0823 -80.1253 118° Southeast  Level FlightAware Approximate
Sun 01:19:12 PM 41.0836 -80.1203 117° Southeast 117 135 7,000  Level Cleveland Center
Sun 01:20:00 PM 41.0668 -80.0874 118° Southeast  Level FlightAware Approximate
Sun 01:20:12 PM 41.0689 -80.0847 119° Southeast 117 135 7,000  Level Cleveland Center
Sun 01:21:00 PM 41.0513 -80.0494 118° Southeast  Level FlightAware Approximate
Sun 01:21:12 PM 41.0542 -80.0517 121° Southeast 117 135 7,000  Level Cleveland Center
Sun 01:22:12 PM 41.0372 -80.0133 120° Southeast 122 140 7,000  Level Cleveland Center
Sun 01:23:12 PM 41.0203 -79.9750 120° Southeast 122 140 7,000  Level Cleveland Center
Sun 01:24:12 PM 41.0056 -79.9367 117° Southeast 122 140 7,000  Level Cleveland Center
Sun 01:25:12 PM 40.9867 -79.8981 123° Southeast 122 140 7,000  Level Cleveland Center
Sun 01:26:12 PM 40.9717 -79.8600 118° Southeast 122 140 7,000  Level Cleveland Center
Sun 01:27:12 PM 40.9547 -79.8217 120° Southeast 122 140 7,000  Level Cleveland Center
Sun 01:28:12 PM 40.9400 -79.7861 119° Southeast 122 140 7,000  Level Cleveland Center
Sun 01:29:12 PM 40.9231 -79.7478 120° Southeast 122 140 7,000  Level Cleveland Center
Sun 01:30:12 PM 40.9061 -79.7067 119° Southeast 122 140 7,000  Level Cleveland Center
Sun 01:31:12 PM 40.8911 -79.6686 118° Southeast 122 140 7,000  Level Cleveland Center
Sun 01:31:33 PM 40.8847 -79.6603 135° Southeast 122 140 7,000  Level Cleveland Center
Sun 01:32:12 PM 40.8742 -79.6331 117° Southeast 122 140 7,000  Level Cleveland Center
Sun 01:32:40 PM 40.8656 -79.6167 125° Southeast 119 137 7,000  Level Cleveland Center
Sun 01:33:12 PM 40.8572 -79.5922 114° Southeast 122 140 7,000  Level Cleveland Center
Sun 01:33:40 PM 40.8508 -79.5783 121° Southeast 121 139 7,000  Level Cleveland Center
Sun 01:34:12 PM 40.8422 -79.5567 118° Southeast 122 140 7,000  Level Cleveland Center
Sun 01:34:41 PM 40.8317 -79.5403 130° Southeast 118 136 7,000  Level Cleveland Center
Sun 01:35:12 PM 40.8253 -79.5186 111° Southeast 122 140 7,000  Level Cleveland Center
Sun 01:35:42 PM 40.8167 -79.4994 121° Southeast 117 135 7,000  Level Cleveland Center
Sun 01:36:12 PM 40.8081 -79.4803 121° Southeast 122 140 7,000  Level Cleveland Center
Sun 01:36:42 PM 40.7997 -79.4614 120° Southeast 120 138 7,000  Level Cleveland Center
Sun 01:37:12 PM 40.7931 -79.4422 115° Southeast 122 140 7,000  Level Cleveland Center
Sun 01:37:43 PM 40.7825 -79.4231 126° Southeast 121 139 7,000  Level Cleveland Center
Sun 01:38:12 PM 40.7761 -79.4042 114° Southeast 122 140 7,000  Level Cleveland Center
Sun 01:38:44 PM 40.7656 -79.3878 130° Southeast 119 137 7,000  Level Cleveland Center
Sun 01:39:12 PM 40.7611 -79.3661 105° East 122 140 7,000  Level Cleveland Center
Sun 01:39:44 PM 40.7525 -79.3442 117° Southeast 117 135 7,000  Level Cleveland Center
Sun 01:40:12 PM 40.7483 -79.3278 109° East 122 140 7,000  Level Cleveland Center
Sun 01:40:45 PM 40.7375 -79.3089 127° Southeast 120 138 7,000  Level Cleveland Center
Sun 01:41:12 PM 40.7311 -79.2869 111° Southeast 122 140 7,000  Level Cleveland Center
Sun 01:41:45 PM 40.7206 -79.2681 126° Southeast 120 138 7,000  Level Cleveland Center
Sun 01:42:46 PM 40.7075 -79.2300 114° Southeast 121 139 7,000  Level Cleveland Center
Sun 01:43:47 PM 40.6883 -79.1894 122° Southeast 119 137 7,000  Level Cleveland Center
Sun 01:44:47 PM 40.6772 -79.1486 110° East 119 137 7,000  Level Cleveland Center
Sun 01:45:48 PM 40.6642 -79.1078 113° Southeast 121 139 7,000  Level Cleveland Center
Sun 01:46:48 PM 40.6492 -79.0725 119° Southeast 119 137 7,000  Level Cleveland Center
Sun 01:47:49 PM 40.6383 -79.0289 108° East 122 140 7,000  Level Cleveland Center
Sun 01:48:50 PM 40.6250 -78.9856 112° Southeast 117 135 7,000  Level Cleveland Center
Sun 01:49:50 PM 40.6119 -78.9475 114° Southeast 119 137 7,000 -347 Level Cleveland Center
Sun 01:50:51 PM 40.5989 -78.9042 112° Southeast 126 145 6,300 -787 Descending Cleveland Center
Sun 01:51:52 PM 40.5836 -78.8633 116° Southeast 125 144 5,400 -694 Descending Cleveland Center
Sun 01:52:52 PM 40.5706 -78.8200 112° Southeast 122 140 4,900 -446 Descending Cleveland Center
Sun 01:53:53 PM 40.5553 -78.7794 116° Southeast 119 137 4,500 -198 Descending Cleveland Center
Sun 01:54:53 PM 40.5444 -78.7442 112° Southeast 115 132 4,500  Level Cleveland Center
Sun 01:55:54 PM 40.5417 -78.7006 95° East 116 133 4,500  Level Cleveland Center
Sun 01:56:55 PM 40.5389 -78.6597 95° East 117 135 4,500  Level Cleveland Center
Sun 01:57:55 PM 40.5339 -78.6106 98° East 124 143 4,500  Level Cleveland Center
Sun 01:58:56 PM 40.5267 -78.5700 103° East 123 142 4,500  Level Cleveland Center
Sun 01:59:57 PM 40.5239 -78.5208 94° East 122 140 4,500 -50 Level Cleveland Center
Sun 02:00:57 PM 40.5189 -78.4772 99° East 122 140 4,400 -50 Descending Cleveland Center
Sun 02:01:58 PM 40.5158 -78.4283 95° East 127 146 4,400  Level Cleveland Center
Sun 02:02:58 PM 40.5108 -78.3819 98° East 124 143 4,400  Level Cleveland Center
Sun 02:03:59 PM 40.5058 -78.3411 99° East 122 140 4,400  Level Cleveland Center
Sun 02:05:00 PM 40.5031 -78.3003 95° East 118 136 4,400  Level Cleveland Center
Sun 02:06:00 PM 40.4917 -78.2514 107° East 133 153 4,400  Level Cleveland Center
Sun 02:07:00 PM 40.4608 -78.2623 155° Southeast  Level Estimated
Sun 02:14:00 PM 40.2964 -78.3200 155° Southeast  Level Estimated
Sun 02:15:00 PM 40.2964 -78.3200 155° Southeast  Level Estimated
Sun 02:16:00 PM 40.2964 -78.3200 155° Southeast  Level Estimated

Login

Don't have an account? Register now (free) for customized features, flight alerts, and more!